sensor_id;sensor_type;location;lat;lon;timestamp;P1;durP1;ratioP1;P2;durP2;ratioP2
7104;SDS011;3594;42.152;24.714;2022-07-29T00:01:15;3.80;;;2.30;;
7104;SDS011;3594;42.152;24.714;2022-07-29T02:12:36;4.35;;;2.90;;
7104;SDS011;3594;42.152;24.714;2022-07-29T02:15:04;4.28;;;2.85;;
7104;SDS011;3594;42.152;24.714;2022-07-29T02:17:42;4.43;;;3.20;;
7104;SDS011;3594;42.152;24.714;2022-07-29T02:20:10;4.50;;;3.15;;
7104;SDS011;3594;42.152;24.714;2022-07-29T02:22:37;6.05;;;3.05;;
7104;SDS011;3594;42.152;24.714;2022-07-29T02:25:05;4.80;;;2.92;;
7104;SDS011;3594;42.152;24.714;2022-07-29T02:27:33;5.28;;;3.05;;
7104;SDS011;3594;42.152;24.714;2022-07-29T02:30:00;4.80;;;3.08;;
7104;SDS011;3594;42.152;24.714;2022-07-29T02:32:28;4.00;;;2.90;;
7104;SDS011;3594;42.152;24.714;2022-07-29T02:34:55;4.25;;;2.97;;
7104;SDS011;3594;42.152;24.714;2022-07-29T02:37:21;5.03;;;2.92;;
7104;SDS011;3594;42.152;24.714;2022-07-29T02:39:49;5.43;;;3.22;;
7104;SDS011;3594;42.152;24.714;2022-07-29T02:42:18;4.15;;;2.90;;
7104;SDS011;3594;42.152;24.714;2022-07-29T02:44:47;4.80;;;3.10;;
7104;SDS011;3594;42.152;24.714;2022-07-29T02:47:15;4.22;;;2.90;;
7104;SDS011;3594;42.152;24.714;2022-07-29T02:52:44;5.25;;;3.60;;
7104;SDS011;3594;42.152;24.714;2022-07-29T02:58:02;6.57;;;3.50;;
7104;SDS011;3594;42.152;24.714;2022-07-29T03:00:34;6.20;;;3.38;;
7104;SDS011;3594;42.152;24.714;2022-07-29T03:03:03;5.22;;;3.38;;
7104;SDS011;3594;42.152;24.714;2022-07-29T03:05:32;5.80;;;3.88;;
7104;SDS011;3594;42.152;24.714;2022-07-29T03:08:00;10.48;;;3.65;;
7104;SDS011;3594;42.152;24.714;2022-07-29T03:10:28;5.28;;;3.53;;
7104;SDS011;3594;42.152;24.714;2022-07-29T03:12:54;4.95;;;3.38;;
7104;SDS011;3594;42.152;24.714;2022-07-29T03:15:21;5.15;;;3.38;;
7104;SDS011;3594;42.152;24.714;2022-07-29T03:17:47;5.72;;;3.80;;
7104;SDS011;3594;42.152;24.714;2022-07-29T03:20:13;6.32;;;3.28;;
7104;SDS011;3594;42.152;24.714;2022-07-29T03:22:39;6.50;;;3.47;;
7104;SDS011;3594;42.152;24.714;2022-07-29T03:25:11;6.25;;;3.80;;
7104;SDS011;3594;42.152;24.714;2022-07-29T03:27:38;4.13;;;3.13;;
7104;SDS011;3594;42.152;24.714;2022-07-29T03:30:05;5.65;;;4.10;;
7104;SDS011;3594;42.152;24.714;2022-07-29T03:32:31;5.97;;;3.65;;
7104;SDS011;3594;42.152;24.714;2022-07-29T03:34:57;3.83;;;3.10;;
7104;SDS011;3594;42.152;24.714;2022-07-29T03:37:22;7.75;;;3.65;;
7104;SDS011;3594;42.152;24.714;2022-07-29T03:39:48;7.50;;;3.88;;
7104;SDS011;3594;42.152;24.714;2022-07-29T03:42:16;5.45;;;3.50;;
7104;SDS011;3594;42.152;24.714;2022-07-29T03:44:45;5.57;;;3.80;;
7104;SDS011;3594;42.152;24.714;2022-07-29T03:47:14;6.35;;;4.05;;
7104;SDS011;3594;42.152;24.714;2022-07-29T03:49:41;5.45;;;3.60;;
7104;SDS011;3594;42.152;24.714;2022-07-29T03:52:07;4.88;;;3.40;;
7104;SDS011;3594;42.152;24.714;2022-07-29T03:54:33;6.22;;;3.70;;
7104;SDS011;3594;42.152;24.714;2022-07-29T03:56:59;7.55;;;4.07;;
7104;SDS011;3594;42.152;24.714;2022-07-29T03:59:26;5.95;;;3.60;;
7104;SDS011;3594;42.152;24.714;2022-07-29T04:01:52;4.78;;;3.17;;
7104;SDS011;3594;42.152;24.714;2022-07-29T04:04:21;6.65;;;3.60;;
7104;SDS011;3594;42.152;24.714;2022-07-29T04:06:47;5.20;;;3.65;;
7104;SDS011;3594;42.152;24.714;2022-07-29T04:09:12;5.57;;;3.80;;
7104;SDS011;3594;42.152;24.714;2022-07-29T04:11:38;4.68;;;3.40;;
7104;SDS011;3594;42.152;24.714;2022-07-29T04:14:05;6.32;;;3.50;;
7104;SDS011;3594;42.152;24.714;2022-07-29T04:16:31;4.53;;;3.10;;
7104;SDS011;3594;42.152;24.714;2022-07-29T04:18:57;5.70;;;3.78;;
7104;SDS011;3594;42.152;24.714;2022-07-29T04:21:23;4.22;;;3.20;;
7104;SDS011;3594;42.152;24.714;2022-07-29T04:23:49;8.30;;;3.70;;
7104;SDS011;3594;42.152;24.714;2022-07-29T04:26:18;5.25;;;3.67;;
7104;SDS011;3594;42.152;24.714;2022-07-29T04:28:44;7.13;;;3.58;;
7104;SDS011;3594;42.152;24.714;2022-07-29T04:31:11;5.82;;;3.80;;
7104;SDS011;3594;42.152;24.714;2022-07-29T04:33:37;5.20;;;3.70;;
7104;SDS011;3594;42.152;24.714;2022-07-29T04:36:03;5.22;;;3.67;;
7104;SDS011;3594;42.152;24.714;2022-07-29T04:38:29;7.93;;;3.50;;
7104;SDS011;3594;42.152;24.714;2022-07-29T04:40:54;6.68;;;3.75;;
7104;SDS011;3594;42.152;24.714;2022-07-29T04:43:20;6.05;;;3.83;;
7104;SDS011;3594;42.152;24.714;2022-07-29T04:45:45;6.07;;;3.80;;
7104;SDS011;3594;42.152;24.714;2022-07-29T04:48:10;6.05;;;3.65;;
7104;SDS011;3594;42.152;24.714;2022-07-29T04:50:39;7.18;;;4.00;;
7104;SDS011;3594;42.152;24.714;2022-07-29T04:53:05;5.53;;;3.60;;
7104;SDS011;3594;42.152;24.714;2022-07-29T04:55:31;5.20;;;3.38;;
7104;SDS011;3594;42.152;24.714;2022-07-29T04:57:56;6.28;;;3.60;;
7104;SDS011;3594;42.152;24.714;2022-07-29T05:00:22;5.00;;;3.47;;
7104;SDS011;3594;42.152;24.714;2022-07-29T05:02:48;5.72;;;3.85;;
7104;SDS011;3594;42.152;24.714;2022-07-29T05:05:14;5.38;;;3.33;;
7104;SDS011;3594;42.152;24.714;2022-07-29T05:07:39;6.57;;;3.92;;
7104;SDS011;3594;42.152;24.714;2022-07-29T05:10:05;5.38;;;3.78;;
7104;SDS011;3594;42.152;24.714;2022-07-29T05:12:31;6.68;;;3.50;;
7104;SDS011;3594;42.152;24.714;2022-07-29T05:14:56;6.07;;;3.60;;
7104;SDS011;3594;42.152;24.714;2022-07-29T05:17:22;4.97;;;3.33;;
7104;SDS011;3594;42.152;24.714;2022-07-29T05:19:47;4.70;;;3.60;;
7104;SDS011;3594;42.152;24.714;2022-07-29T05:22:13;6.55;;;3.85;;
7104;SDS011;3594;42.152;24.714;2022-07-29T05:24:38;6.60;;;4.05;;
7104;SDS011;3594;42.152;24.714;2022-07-29T05:27:04;8.45;;;3.97;;
7104;SDS011;3594;42.152;24.714;2022-07-29T05:29:29;4.72;;;3.60;;
7104;SDS011;3594;42.152;24.714;2022-07-29T05:31:54;4.80;;;3.53;;
7104;SDS011;3594;42.152;24.714;2022-07-29T05:34:20;5.15;;;3.90;;
7104;SDS011;3594;42.152;24.714;2022-07-29T05:36:45;5.93;;;3.60;;
7104;SDS011;3594;42.152;24.714;2022-07-29T05:39:11;7.70;;;3.75;;
7104;SDS011;3594;42.152;24.714;2022-07-29T05:41:38;5.60;;;3.80;;
7104;SDS011;3594;42.152;24.714;2022-07-29T05:44:04;6.20;;;3.53;;
7104;SDS011;3594;42.152;24.714;2022-07-29T05:46:29;4.90;;;3.40;;
7104;SDS011;3594;42.152;24.714;2022-07-29T05:48:54;7.53;;;3.50;;
7104;SDS011;3594;42.152;24.714;2022-07-29T05:51:20;7.03;;;3.60;;
7104;SDS011;3594;42.152;24.714;2022-07-29T05:53:45;6.00;;;4.22;;
7104;SDS011;3594;42.152;24.714;2022-07-29T05:56:11;7.45;;;3.80;;
7104;SDS011;3594;42.152;24.714;2022-07-29T05:58:36;6.35;;;3.90;;
7104;SDS011;3594;42.152;24.714;2022-07-29T06:01:02;4.90;;;3.83;;
7104;SDS011;3594;42.152;24.714;2022-07-29T06:03:28;5.72;;;4.32;;
7104;SDS011;3594;42.152;24.714;2022-07-29T06:05:54;6.75;;;4.45;;
7104;SDS011;3594;42.152;24.714;2022-07-29T06:08:19;6.38;;;4.28;;
7104;SDS011;3594;42.152;24.714;2022-07-29T06:10:45;6.30;;;4.80;;
7104;SDS011;3594;42.152;24.714;2022-07-29T06:13:13;5.80;;;4.28;;
7104;SDS011;3594;42.152;24.714;2022-07-29T06:15:40;10.50;;;4.20;;
7104;SDS011;3594;42.152;24.714;2022-07-29T06:18:07;5.47;;;4.22;;
7104;SDS011;3594;42.152;24.714;2022-07-29T06:20:34;7.13;;;4.22;;
7104;SDS011;3594;42.152;24.714;2022-07-29T06:22:59;6.30;;;4.22;;
7104;SDS011;3594;42.152;24.714;2022-07-29T06:25:25;5.82;;;4.07;;
7104;SDS011;3594;42.152;24.714;2022-07-29T06:27:51;7.00;;;3.88;;
7104;SDS011;3594;42.152;24.714;2022-07-29T06:30:17;6.95;;;4.32;;
7104;SDS011;3594;42.152;24.714;2022-07-29T06:32:43;6.50;;;4.28;;
7104;SDS011;3594;42.152;24.714;2022-07-29T06:35:09;5.55;;;3.80;;
7104;SDS011;3594;42.152;24.714;2022-07-29T06:37:34;6.63;;;4.10;;
7104;SDS011;3594;42.152;24.714;2022-07-29T06:40:00;6.10;;;4.05;;
7104;SDS011;3594;42.152;24.714;2022-07-29T06:42:44;4.40;;;3.65;;
7104;SDS011;3594;42.152;24.714;2022-07-29T06:45:10;6.40;;;3.88;;
7104;SDS011;3594;42.152;24.714;2022-07-29T06:47:36;6.38;;;3.97;;
7104;SDS011;3594;42.152;24.714;2022-07-29T06:50:02;5.78;;;4.03;;
7104;SDS011;3594;42.152;24.714;2022-07-29T06:52:28;8.60;;;4.10;;
7104;SDS011;3594;42.152;24.714;2022-07-29T06:54:54;6.53;;;4.25;;
7104;SDS011;3594;42.152;24.714;2022-07-29T06:57:20;6.10;;;4.13;;
7104;SDS011;3594;42.152;24.714;2022-07-29T06:59:46;7.07;;;4.20;;
7104;SDS011;3594;42.152;24.714;2022-07-29T07:02:12;7.47;;;4.10;;
7104;SDS011;3594;42.152;24.714;2022-07-29T07:04:38;8.20;;;5.45;;
7104;SDS011;3594;42.152;24.714;2022-07-29T07:07:03;6.97;;;4.43;;
7104;SDS011;3594;42.152;24.714;2022-07-29T07:09:29;7.05;;;4.50;;
7104;SDS011;3594;42.152;24.714;2022-07-29T07:11:54;6.53;;;4.40;;
7104;SDS011;3594;42.152;24.714;2022-07-29T07:14:20;6.15;;;4.03;;
7104;SDS011;3594;42.152;24.714;2022-07-29T07:16:45;5.57;;;3.63;;
7104;SDS011;3594;42.152;24.714;2022-07-29T07:19:11;8.20;;;3.92;;
7104;SDS011;3594;42.152;24.714;2022-07-29T07:21:36;5.82;;;3.88;;
7104;SDS011;3594;42.152;24.714;2022-07-29T07:24:02;6.70;;;4.10;;
7104;SDS011;3594;42.152;24.714;2022-07-29T07:26:27;7.07;;;4.03;;
7104;SDS011;3594;42.152;24.714;2022-07-29T07:28:53;8.23;;;4.30;;
7104;SDS011;3594;42.152;24.714;2022-07-29T07:31:18;6.80;;;4.03;;
7104;SDS011;3594;42.152;24.714;2022-07-29T07:33:44;6.78;;;3.78;;
7104;SDS011;3594;42.152;24.714;2022-07-29T07:36:10;6.22;;;4.07;;
7104;SDS011;3594;42.152;24.714;2022-07-29T07:38:35;5.25;;;3.90;;
7104;SDS011;3594;42.152;24.714;2022-07-29T07:41:01;7.43;;;4.15;;
7104;SDS011;3594;42.152;24.714;2022-07-29T07:43:27;8.07;;;4.25;;
7104;SDS011;3594;42.152;24.714;2022-07-29T07:45:52;8.43;;;4.47;;
7104;SDS011;3594;42.152;24.714;2022-07-29T07:48:18;6.72;;;4.10;;
7104;SDS011;3594;42.152;24.714;2022-07-29T07:50:43;7.75;;;4.53;;
7104;SDS011;3594;42.152;24.714;2022-07-29T07:53:09;6.10;;;3.92;;
7104;SDS011;3594;42.152;24.714;2022-07-29T07:55:39;5.60;;;3.72;;
7104;SDS011;3594;42.152;24.714;2022-07-29T07:58:06;6.43;;;4.28;;
7104;SDS011;3594;42.152;24.714;2022-07-29T08:00:31;5.38;;;3.47;;
7104;SDS011;3594;42.152;24.714;2022-07-29T08:02:57;5.97;;;4.20;;
7104;SDS011;3594;42.152;24.714;2022-07-29T08:05:23;5.93;;;4.03;;
7104;SDS011;3594;42.152;24.714;2022-07-29T08:07:48;5.72;;;3.60;;
7104;SDS011;3594;42.152;24.714;2022-07-29T08:10:14;6.03;;;4.05;;
7104;SDS011;3594;42.152;24.714;2022-07-29T08:13:01;6.13;;;3.65;;
7104;SDS011;3594;42.152;24.714;2022-07-29T08:15:30;3.92;;;3.08;;
7104;SDS011;3594;42.152;24.714;2022-07-29T08:17:56;6.05;;;4.05;;
7104;SDS011;3594;42.152;24.714;2022-07-29T08:20:21;5.30;;;3.40;;
7104;SDS011;3594;42.152;24.714;2022-07-29T08:22:47;4.90;;;3.45;;
7104;SDS011;3594;42.152;24.714;2022-07-29T08:25:12;4.82;;;3.50;;
7104;SDS011;3594;42.152;24.714;2022-07-29T08:27:38;5.50;;;3.88;;
7104;SDS011;3594;42.152;24.714;2022-07-29T08:30:03;5.35;;;3.88;;
7104;SDS011;3594;42.152;24.714;2022-07-29T08:32:29;5.93;;;3.95;;
7104;SDS011;3594;42.152;24.714;2022-07-29T08:34:56;4.25;;;3.22;;
7104;SDS011;3594;42.152;24.714;2022-07-29T08:37:21;4.70;;;3.33;;
7104;SDS011;3594;42.152;24.714;2022-07-29T08:39:47;4.40;;;2.92;;
7104;SDS011;3594;42.152;24.714;2022-07-29T08:42:12;4.50;;;2.90;;
7104;SDS011;3594;42.152;24.714;2022-07-29T08:44:38;4.13;;;2.97;;
7104;SDS011;3594;42.152;24.714;2022-07-29T08:47:04;4.35;;;3.20;;
7104;SDS011;3594;42.152;24.714;2022-07-29T08:49:30;12.15;;;3.90;;
7104;SDS011;3594;42.152;24.714;2022-07-29T08:51:58;3.88;;;3.00;;
7104;SDS011;3594;42.152;24.714;2022-07-29T08:54:25;6.22;;;3.17;;
7104;SDS011;3594;42.152;24.714;2022-07-29T08:56:50;5.78;;;3.50;;
7104;SDS011;3594;42.152;24.714;2022-07-29T09:01:45;4.75;;;2.92;;
7104;SDS011;3594;42.152;24.714;2022-07-29T09:04:11;4.18;;;3.10;;
7104;SDS011;3594;42.152;24.714;2022-07-29T09:06:41;6.53;;;2.80;;
7104;SDS011;3594;42.152;24.714;2022-07-29T09:09:09;4.75;;;3.05;;
7104;SDS011;3594;42.152;24.714;2022-07-29T09:11:34;4.22;;;2.88;;
7104;SDS011;3594;42.152;24.714;2022-07-29T09:14:00;4.57;;;2.95;;
7104;SDS011;3594;42.152;24.714;2022-07-29T09:16:40;3.35;;;2.55;;
7104;SDS011;3594;42.152;24.714;2022-07-29T09:19:25;4.28;;;2.80;;
7104;SDS011;3594;42.152;24.714;2022-07-29T09:21:53;3.42;;;2.50;;
7104;SDS011;3594;42.152;24.714;2022-07-29T09:24:23;3.47;;;2.80;;
7104;SDS011;3594;42.152;24.714;2022-07-29T09:26:49;3.78;;;2.88;;
7104;SDS011;3594;42.152;24.714;2022-07-29T09:29:16;3.90;;;2.90;;
7104;SDS011;3594;42.152;24.714;2022-07-29T09:31:47;3.58;;;2.72;;
7104;SDS011;3594;42.152;24.714;2022-07-29T09:34:15;3.53;;;2.70;;
7104;SDS011;3594;42.152;24.714;2022-07-29T09:36:46;3.97;;;2.88;;
7104;SDS011;3594;42.152;24.714;2022-07-29T09:39:13;3.60;;;2.70;;
7104;SDS011;3594;42.152;24.714;2022-07-29T09:41:49;4.22;;;2.50;;
7104;SDS011;3594;42.152;24.714;2022-07-29T09:44:20;5.20;;;3.50;;
7104;SDS011;3594;42.152;24.714;2022-07-29T09:46:59;4.20;;;2.97;;
7104;SDS011;3594;42.152;24.714;2022-07-29T09:49:33;3.92;;;2.60;;
7104;SDS011;3594;42.152;24.714;2022-07-29T09:52:00;3.92;;;2.92;;
7104;SDS011;3594;42.152;24.714;2022-07-29T09:54:34;4.60;;;2.72;;
7104;SDS011;3594;42.152;24.714;2022-07-29T09:57:04;3.80;;;2.78;;
7104;SDS011;3594;42.152;24.714;2022-07-29T09:59:32;3.63;;;2.85;;
7104;SDS011;3594;42.152;24.714;2022-07-29T10:01:58;3.33;;;2.58;;
7104;SDS011;3594;42.152;24.714;2022-07-29T10:04:24;4.32;;;2.95;;
7104;SDS011;3594;42.152;24.714;2022-07-29T10:07:02;4.35;;;2.78;;
7104;SDS011;3594;42.152;24.714;2022-07-29T10:09:28;4.38;;;3.00;;
7104;SDS011;3594;42.152;24.714;2022-07-29T10:12:04;3.00;;;2.50;;
7104;SDS011;3594;42.152;24.714;2022-07-29T10:14:35;4.25;;;2.55;;
7104;SDS011;3594;42.152;24.714;2022-07-29T10:17:00;4.43;;;2.60;;
7104;SDS011;3594;42.152;24.714;2022-07-29T10:19:30;3.72;;;2.80;;
7104;SDS011;3594;42.152;24.714;2022-07-29T10:21:57;4.45;;;3.40;;
7104;SDS011;3594;42.152;24.714;2022-07-29T10:24:25;3.30;;;2.67;;
7104;SDS011;3594;42.152;24.714;2022-07-29T10:26:53;6.97;;;2.42;;
7104;SDS011;3594;42.152;24.714;2022-07-29T10:29:24;3.28;;;2.47;;
7104;SDS011;3594;42.152;24.714;2022-07-29T10:31:57;4.32;;;2.90;;
7104;SDS011;3594;42.152;24.714;2022-07-29T10:42:54;4.32;;;2.78;;
7104;SDS011;3594;42.152;24.714;2022-07-29T10:45:25;3.55;;;2.58;;
7104;SDS011;3594;42.152;24.714;2022-07-29T10:48:02;5.03;;;2.80;;
7104;SDS011;3594;42.152;24.714;2022-07-29T10:50:51;4.53;;;2.88;;
7104;SDS011;3594;42.152;24.714;2022-07-29T10:53:23;4.03;;;2.83;;
7104;SDS011;3594;42.152;24.714;2022-07-29T10:56:22;3.58;;;2.72;;
7104;SDS011;3594;42.152;24.714;2022-07-29T11:01:44;4.22;;;2.75;;
7104;SDS011;3594;42.152;24.714;2022-07-29T11:04:11;3.47;;;2.72;;
7104;SDS011;3594;42.152;24.714;2022-07-29T11:09:30;3.25;;;2.60;;
7104;SDS011;3594;42.152;24.714;2022-07-29T11:11:59;3.53;;;2.60;;
7104;SDS011;3594;42.152;24.714;2022-07-29T11:17:21;3.47;;;2.60;;
7104;SDS011;3594;42.152;24.714;2022-07-29T11:19:46;3.60;;;2.60;;
7104;SDS011;3594;42.152;24.714;2022-07-29T11:22:12;4.40;;;3.00;;
7104;SDS011;3594;42.152;24.714;2022-07-29T11:25:16;4.30;;;3.00;;
7104;SDS011;3594;42.152;24.714;2022-07-29T11:27:43;3.58;;;2.75;;
7104;SDS011;3594;42.152;24.714;2022-07-29T11:30:09;5.35;;;3.08;;
7104;SDS011;3594;42.152;24.714;2022-07-29T11:32:38;7.55;;;3.17;;
7104;SDS011;3594;42.152;24.714;2022-07-29T11:37:42;3.60;;;2.65;;
7104;SDS011;3594;42.152;24.714;2022-07-29T11:40:08;3.33;;;2.88;;
7104;SDS011;3594;42.152;24.714;2022-07-29T11:47:32;4.82;;;2.95;;
7104;SDS011;3594;42.152;24.714;2022-07-29T11:50:02;3.60;;;2.90;;
7104;SDS011;3594;42.152;24.714;2022-07-29T11:52:36;3.85;;;2.97;;
7104;SDS011;3594;42.152;24.714;2022-07-29T11:55:08;4.82;;;2.95;;
7104;SDS011;3594;42.152;24.714;2022-07-29T11:57:35;3.75;;;3.00;;
7104;SDS011;3594;42.152;24.714;2022-07-29T12:00:02;4.30;;;2.92;;
7104;SDS011;3594;42.152;24.714;2022-07-29T12:02:40;4.22;;;2.50;;
7104;SDS011;3594;42.152;24.714;2022-07-29T12:05:07;3.22;;;2.78;;
7104;SDS011;3594;42.152;24.714;2022-07-29T12:07:35;4.05;;;2.78;;
7104;SDS011;3594;42.152;24.714;2022-07-29T12:10:02;4.10;;;2.65;;
7104;SDS011;3594;42.152;24.714;2022-07-29T12:12:28;4.70;;;3.03;;
7104;SDS011;3594;42.152;24.714;2022-07-29T12:14:54;5.18;;;2.90;;
7104;SDS011;3594;42.152;24.714;2022-07-29T12:17:30;3.47;;;2.88;;
7104;SDS011;3594;42.152;24.714;2022-07-29T12:19:57;3.08;;;2.78;;
7104;SDS011;3594;42.152;24.714;2022-07-29T12:22:46;3.83;;;2.70;;
7104;SDS011;3594;42.152;24.714;2022-07-29T12:25:13;3.25;;;2.58;;
7104;SDS011;3594;42.152;24.714;2022-07-29T12:27:40;3.45;;;2.80;;
7104;SDS011;3594;42.152;24.714;2022-07-29T12:30:11;4.50;;;2.65;;
7104;SDS011;3594;42.152;24.714;2022-07-29T12:32:49;3.88;;;2.80;;
7104;SDS011;3594;42.152;24.714;2022-07-29T12:35:15;4.32;;;2.70;;
7104;SDS011;3594;42.152;24.714;2022-07-29T12:37:43;3.30;;;2.35;;
7104;SDS011;3594;42.152;24.714;2022-07-29T12:40:10;2.92;;;2.40;;
7104;SDS011;3594;42.152;24.714;2022-07-29T12:42:38;3.50;;;2.60;;
7104;SDS011;3594;42.152;24.714;2022-07-29T12:45:04;3.65;;;2.47;;
7104;SDS011;3594;42.152;24.714;2022-07-29T12:47:30;3.13;;;2.58;;
7104;SDS011;3594;42.152;24.714;2022-07-29T12:50:09;3.45;;;2.92;;
7104;SDS011;3594;42.152;24.714;2022-07-29T12:52:39;3.75;;;2.83;;
7104;SDS011;3594;42.152;24.714;2022-07-29T12:55:05;3.65;;;2.60;;
7104;SDS011;3594;42.152;24.714;2022-07-29T12:57:31;3.03;;;2.30;;
7104;SDS011;3594;42.152;24.714;2022-07-29T13:00:04;5.45;;;2.60;;
7104;SDS011;3594;42.152;24.714;2022-07-29T13:02:35;3.75;;;2.55;;
7104;SDS011;3594;42.152;24.714;2022-07-29T13:05:02;3.80;;;2.70;;
7104;SDS011;3594;42.152;24.714;2022-07-29T13:07:30;3.53;;;2.70;;
7104;SDS011;3594;42.152;24.714;2022-07-29T13:10:18;3.50;;;2.63;;
7104;SDS011;3594;42.152;24.714;2022-07-29T13:13:05;3.65;;;2.65;;
7104;SDS011;3594;42.152;24.714;2022-07-29T13:15:34;3.38;;;2.50;;
7104;SDS011;3594;42.152;24.714;2022-07-29T13:18:04;3.97;;;2.75;;
7104;SDS011;3594;42.152;24.714;2022-07-29T13:20:50;4.32;;;2.70;;
7104;SDS011;3594;42.152;24.714;2022-07-29T13:23:15;4.72;;;2.97;;
7104;SDS011;3594;42.152;24.714;2022-07-29T13:25:41;3.97;;;2.90;;
7104;SDS011;3594;42.152;24.714;2022-07-29T13:28:06;3.92;;;3.00;;
7104;SDS011;3594;42.152;24.714;2022-07-29T13:30:32;3.45;;;2.70;;
7104;SDS011;3594;42.152;24.714;2022-07-29T13:32:57;4.47;;;2.95;;
7104;SDS011;3594;42.152;24.714;2022-07-29T13:35:23;4.07;;;2.95;;
7104;SDS011;3594;42.152;24.714;2022-07-29T13:37:48;3.85;;;3.00;;
7104;SDS011;3594;42.152;24.714;2022-07-29T13:40:14;4.25;;;3.08;;
7104;SDS011;3594;42.152;24.714;2022-07-29T13:42:40;3.47;;;2.80;;
7104;SDS011;3594;42.152;24.714;2022-07-29T13:45:06;6.50;;;3.03;;
7104;SDS011;3594;42.152;24.714;2022-07-29T13:47:33;6.45;;;3.20;;
7104;SDS011;3594;42.152;24.714;2022-07-29T13:49:59;4.10;;;3.00;;
7104;SDS011;3594;42.152;24.714;2022-07-29T13:52:25;6.20;;;3.28;;
7104;SDS011;3594;42.152;24.714;2022-07-29T13:54:51;4.15;;;2.63;;
7104;SDS011;3594;42.152;24.714;2022-07-29T13:57:16;5.03;;;3.10;;
7104;SDS011;3594;42.152;24.714;2022-07-29T13:59:42;3.28;;;2.70;;
7104;SDS011;3594;42.152;24.714;2022-07-29T14:02:08;4.22;;;2.70;;
7104;SDS011;3594;42.152;24.714;2022-07-29T14:04:34;3.72;;;3.13;;
7104;SDS011;3594;42.152;24.714;2022-07-29T14:07:00;7.57;;;2.80;;
7104;SDS011;3594;42.152;24.714;2022-07-29T14:09:26;3.15;;;2.58;;
7104;SDS011;3594;42.152;24.714;2022-07-29T14:11:52;4.20;;;2.95;;
7104;SDS011;3594;42.152;24.714;2022-07-29T14:14:18;4.47;;;3.08;;
7104;SDS011;3594;42.152;24.714;2022-07-29T14:16:44;3.55;;;2.85;;
7104;SDS011;3594;42.152;24.714;2022-07-29T14:19:09;4.05;;;3.03;;
7104;SDS011;3594;42.152;24.714;2022-07-29T14:21:36;6.93;;;3.33;;
7104;SDS011;3594;42.152;24.714;2022-07-29T14:24:03;3.83;;;2.78;;
7104;SDS011;3594;42.152;24.714;2022-07-29T14:26:29;3.67;;;2.78;;
7104;SDS011;3594;42.152;24.714;2022-07-29T14:28:54;4.53;;;3.28;;
7104;SDS011;3594;42.152;24.714;2022-07-29T14:31:19;3.60;;;2.53;;
7104;SDS011;3594;42.152;24.714;2022-07-29T14:33:45;3.53;;;2.50;;
7104;SDS011;3594;42.152;24.714;2022-07-29T14:36:10;3.97;;;2.85;;
7104;SDS011;3594;42.152;24.714;2022-07-29T14:38:36;4.68;;;2.85;;
7104;SDS011;3594;42.152;24.714;2022-07-29T14:41:02;5.25;;;2.83;;
7104;SDS011;3594;42.152;24.714;2022-07-29T14:43:28;3.03;;;2.40;;
7104;SDS011;3594;42.152;24.714;2022-07-29T14:45:54;4.22;;;2.70;;
7104;SDS011;3594;42.152;24.714;2022-07-29T14:48:19;3.10;;;2.42;;
7104;SDS011;3594;42.152;24.714;2022-07-29T14:50:45;4.00;;;2.78;;
7104;SDS011;3594;42.152;24.714;2022-07-29T14:53:10;3.40;;;2.47;;
7104;SDS011;3594;42.152;24.714;2022-07-29T14:55:37;3.53;;;2.85;;
7104;SDS011;3594;42.152;24.714;2022-07-29T14:58:04;4.63;;;2.65;;
7104;SDS011;3594;42.152;24.714;2022-07-29T15:00:30;3.47;;;2.70;;
7104;SDS011;3594;42.152;24.714;2022-07-29T15:02:57;3.55;;;2.58;;
7104;SDS011;3594;42.152;24.714;2022-07-29T15:05:24;5.05;;;2.88;;
7104;SDS011;3594;42.152;24.714;2022-07-29T15:07:50;3.75;;;2.70;;
7104;SDS011;3594;42.152;24.714;2022-07-29T15:10:15;3.25;;;2.30;;
7104;SDS011;3594;42.152;24.714;2022-07-29T15:12:40;3.40;;;2.50;;
7104;SDS011;3594;42.152;24.714;2022-07-29T15:15:06;3.95;;;2.47;;
7104;SDS011;3594;42.152;24.714;2022-07-29T15:17:32;4.78;;;2.65;;
7104;SDS011;3594;42.152;24.714;2022-07-29T15:19:58;3.58;;;2.60;;
7104;SDS011;3594;42.152;24.714;2022-07-29T15:22:23;5.00;;;2.50;;
7104;SDS011;3594;42.152;24.714;2022-07-29T15:24:48;3.90;;;2.65;;
7104;SDS011;3594;42.152;24.714;2022-07-29T15:27:14;3.17;;;2.50;;
7104;SDS011;3594;42.152;24.714;2022-07-29T15:29:40;3.97;;;2.70;;
7104;SDS011;3594;42.152;24.714;2022-07-29T15:32:06;3.80;;;2.47;;
7104;SDS011;3594;42.152;24.714;2022-07-29T15:34:32;3.28;;;2.63;;
7104;SDS011;3594;42.152;24.714;2022-07-29T15:36:57;3.20;;;2.45;;
7104;SDS011;3594;42.152;24.714;2022-07-29T15:39:22;3.85;;;2.42;;
7104;SDS011;3594;42.152;24.714;2022-07-29T15:41:48;3.88;;;2.50;;
7104;SDS011;3594;42.152;24.714;2022-07-29T15:44:14;6.60;;;2.70;;
7104;SDS011;3594;42.152;24.714;2022-07-29T15:46:39;2.35;;;2.10;;
7104;SDS011;3594;42.152;24.714;2022-07-29T15:49:23;4.60;;;2.60;;
7104;SDS011;3594;42.152;24.714;2022-07-29T15:51:55;3.75;;;2.65;;
7104;SDS011;3594;42.152;24.714;2022-07-29T15:54:20;4.60;;;2.90;;
7104;SDS011;3594;42.152;24.714;2022-07-29T15:56:46;3.83;;;2.88;;
7104;SDS011;3594;42.152;24.714;2022-07-29T15:59:11;4.78;;;3.30;;
7104;SDS011;3594;42.152;24.714;2022-07-29T16:01:37;3.88;;;2.92;;
7104;SDS011;3594;42.152;24.714;2022-07-29T16:04:02;5.85;;;3.10;;
7104;SDS011;3594;42.152;24.714;2022-07-29T16:06:28;4.38;;;3.20;;
7104;SDS011;3594;42.152;24.714;2022-07-29T16:08:53;3.92;;;2.80;;
7104;SDS011;3594;42.152;24.714;2022-07-29T16:11:20;4.10;;;2.80;;
7104;SDS011;3594;42.152;24.714;2022-07-29T16:13:45;3.92;;;2.72;;
7104;SDS011;3594;42.152;24.714;2022-07-29T16:16:11;3.90;;;3.05;;
7104;SDS011;3594;42.152;24.714;2022-07-29T16:18:36;4.47;;;2.97;;
7104;SDS011;3594;42.152;24.714;2022-07-29T16:21:02;5.18;;;3.00;;
7104;SDS011;3594;42.152;24.714;2022-07-29T16:23:27;3.90;;;3.10;;
7104;SDS011;3594;42.152;24.714;2022-07-29T16:25:52;4.95;;;3.22;;
7104;SDS011;3594;42.152;24.714;2022-07-29T16:28:18;4.18;;;2.92;;
7104;SDS011;3594;42.152;24.714;2022-07-29T16:30:43;6.40;;;3.05;;
7104;SDS011;3594;42.152;24.714;2022-07-29T16:33:09;3.95;;;3.00;;
7104;SDS011;3594;42.152;24.714;2022-07-29T16:35:34;6.15;;;2.92;;
7104;SDS011;3594;42.152;24.714;2022-07-29T16:38:03;5.93;;;3.20;;
7104;SDS011;3594;42.152;24.714;2022-07-29T16:40:28;4.03;;;2.72;;
7104;SDS011;3594;42.152;24.714;2022-07-29T16:42:53;3.42;;;2.60;;
7104;SDS011;3594;42.152;24.714;2022-07-29T16:45:19;4.20;;;2.75;;
7104;SDS011;3594;42.152;24.714;2022-07-29T16:47:44;4.30;;;2.75;;
7104;SDS011;3594;42.152;24.714;2022-07-29T16:50:10;3.47;;;2.55;;
7104;SDS011;3594;42.152;24.714;2022-07-29T16:52:35;5.22;;;2.92;;
7104;SDS011;3594;42.152;24.714;2022-07-29T16:55:02;3.40;;;2.78;;
7104;SDS011;3594;42.152;24.714;2022-07-29T16:57:28;3.05;;;2.75;;
7104;SDS011;3594;42.152;24.714;2022-07-29T16:59:53;3.95;;;3.10;;
7104;SDS011;3594;42.152;24.714;2022-07-29T17:02:19;4.90;;;2.70;;
7104;SDS011;3594;42.152;24.714;2022-07-29T17:04:44;5.65;;;2.97;;
7104;SDS011;3594;42.152;24.714;2022-07-29T17:07:10;3.60;;;2.72;;
7104;SDS011;3594;42.152;24.714;2022-07-29T17:09:35;4.10;;;2.78;;
7104;SDS011;3594;42.152;24.714;2022-07-29T17:12:01;3.15;;;2.50;;
7104;SDS011;3594;42.152;24.714;2022-07-29T17:14:29;6.22;;;2.70;;
7104;SDS011;3594;42.152;24.714;2022-07-29T17:16:56;3.97;;;2.70;;
7104;SDS011;3594;42.152;24.714;2022-07-29T17:19:24;4.30;;;3.03;;
7104;SDS011;3594;42.152;24.714;2022-07-29T17:21:50;3.40;;;2.58;;
7104;SDS011;3594;42.152;24.714;2022-07-29T17:24:15;6.03;;;2.80;;
7104;SDS011;3594;42.152;24.714;2022-07-29T17:26:41;3.53;;;2.70;;
7104;SDS011;3594;42.152;24.714;2022-07-29T17:29:08;6.80;;;2.80;;
7104;SDS011;3594;42.152;24.714;2022-07-29T17:31:34;5.05;;;3.20;;
7104;SDS011;3594;42.152;24.714;2022-07-29T17:34:00;3.15;;;2.50;;
7104;SDS011;3594;42.152;24.714;2022-07-29T17:36:30;4.00;;;2.60;;
7104;SDS011;3594;42.152;24.714;2022-07-29T17:38:57;6.13;;;2.90;;
7104;SDS011;3594;42.152;24.714;2022-07-29T17:41:26;3.72;;;2.92;;
7104;SDS011;3594;42.152;24.714;2022-07-29T17:43:52;3.42;;;2.50;;